sensor_id;sensor_type;location;lat;lon;timestamp;pressure;altitude;pressure_sealevel;temperature;humidity
68807;BME280;55800;54.272;18.558;2023-04-07T00:00:10;101438.84;;;4.91;63.65
68807;BME280;55800;54.272;18.558;2023-04-07T00:03:00;101439.72;;;4.92;63.43
68807;BME280;55800;54.272;18.558;2023-04-07T00:05:34;101433.53;;;4.91;63.46
68807;BME280;55800;54.272;18.558;2023-04-07T00:08:03;101425.56;;;4.93;66.31
68807;BME280;55800;54.272;18.558;2023-04-07T00:10:34;101430.00;;;4.94;63.34
68807;BME280;55800;54.272;18.558;2023-04-07T00:13:07;101434.38;;;4.95;64.60
68807;BME280;55800;54.272;18.558;2023-04-07T00:15:37;101423.78;;;4.98;65.97
68807;BME280;55800;54.272;18.558;2023-04-07T00:18:07;101413.16;;;4.99;63.58
68807;BME280;55800;54.272;18.558;2023-04-07T00:20:36;101418.44;;;5.04;64.46
68807;BME280;55800;54.272;18.558;2023-04-07T00:23:06;101415.78;;;5.05;64.68
68807;BME280;55800;54.272;18.558;2023-04-07T00:25:35;101415.81;;;5.02;65.57
68807;BME280;55800;54.272;18.558;2023-04-07T00:28:04;101416.69;;;5.01;65.67
68807;BME280;55800;54.272;18.558;2023-04-07T00:30:34;101407.84;;;5.04;64.78
68807;BME280;55800;54.272;18.558;2023-04-07T00:33:05;101413.16;;;5.04;64.34
68807;BME280;55800;54.272;18.558;2023-04-07T00:35:37;101413.16;;;5.01;65.86
68807;BME280;55800;54.272;18.558;2023-04-07T00:38:06;101407.91;;;4.95;65.39
68807;BME280;55800;54.272;18.558;2023-04-07T00:40:35;101410.56;;;4.96;65.22
68807;BME280;55800;54.272;18.558;2023-04-07T00:43:04;101406.13;;;4.98;65.73
68807;BME280;55800;54.272;18.558;2023-04-07T00:45:34;101404.28;;;5.05;66.93
68807;BME280;55800;54.272;18.558;2023-04-07T00:48:06;101393.69;;;5.06;65.25
68807;BME280;55800;54.272;18.558;2023-04-07T00:50:36;101390.16;;;5.06;66.77
68807;BME280;55800;54.272;18.558;2023-04-07T00:53:05;101393.69;;;5.08;68.10
68807;BME280;55800;54.272;18.558;2023-04-07T00:55:35;101390.16;;;5.06;65.58
68807;BME280;55800;54.272;18.558;2023-04-07T00:58:04;101385.75;;;5.03;65.21
68807;BME280;55800;54.272;18.558;2023-04-07T01:00:37;101390.19;;;5.01;65.15
68807;BME280;55800;54.272;18.558;2023-04-07T01:03:15;101391.06;;;5.03;65.96
68807;BME280;55800;54.272;18.558;2023-04-07T01:05:53;101379.56;;;5.03;67.40
68807;BME280;55800;54.272;18.558;2023-04-07T01:08:29;101377.78;;;5.05;65.97
68807;BME280;55800;54.272;18.558;2023-04-07T01:11:09;101376.03;;;5.04;64.98
68807;BME280;55800;54.272;18.558;2023-04-07T01:13:45;101380.44;;;5.05;66.23
68807;BME280;55800;54.272;18.558;2023-04-07T01:16:43;101366.31;;;5.06;67.17
68807;BME280;55800;54.272;18.558;2023-04-07T01:19:25;101367.19;;;5.05;66.78
68807;BME280;55800;54.272;18.558;2023-04-07T01:22:01;101370.75;;;5.04;67.21
68807;BME280;55800;54.272;18.558;2023-04-07T01:24:50;101378.66;;;5.05;66.30
68807;BME280;55800;54.272;18.558;2023-04-07T01:27:37;101358.34;;;5.06;64.93
68807;BME280;55800;54.272;18.558;2023-04-07T01:30:12;101363.66;;;5.06;67.63
68807;BME280;55800;54.272;18.558;2023-04-07T01:32:46;101372.47;;;5.05;65.41
68807;BME280;55800;54.272;18.558;2023-04-07T01:35:18;101371.59;;;5.06;64.97
68807;BME280;55800;54.272;18.558;2023-04-07T01:37:50;101366.28;;;5.07;66.67
68807;BME280;55800;54.272;18.558;2023-04-07T01:40:21;101368.84;;;5.18;65.33
68807;BME280;55800;54.272;18.558;2023-04-07T01:42:51;101373.34;;;5.13;65.75
68807;BME280;55800;54.272;18.558;2023-04-07T01:45:23;101365.44;;;5.07;66.88
68807;BME280;55800;54.272;18.558;2023-04-07T01:47:53;101362.78;;;5.07;64.96
68807;BME280;55800;54.272;18.558;2023-04-07T01:50:22;101360.13;;;5.07;66.57
68807;BME280;55800;54.272;18.558;2023-04-07T01:52:53;101366.31;;;5.04;66.59
68807;BME280;55800;54.272;18.558;2023-04-07T01:55:22;101357.50;;;5.04;65.25
68807;BME280;55800;54.272;18.558;2023-04-07T01:58:04;101362.75;;;5.08;65.83
68807;BME280;55800;54.272;18.558;2023-04-07T02:00:37;101356.56;;;5.08;65.74
68807;BME280;55800;54.272;18.558;2023-04-07T02:03:14;101361.88;;;5.08;66.10
68807;BME280;55800;54.272;18.558;2023-04-07T02:05:51;101357.44;;;5.10;67.56
68807;BME280;55800;54.272;18.558;2023-04-07T02:08:27;101363.66;;;5.09;67.40
68807;BME280;55800;54.272;18.558;2023-04-07T02:11:00;101372.41;;;5.14;66.27
68807;BME280;55800;54.272;18.558;2023-04-07T02:13:37;101368.91;;;5.12;66.76
68807;BME280;55800;54.272;18.558;2023-04-07T02:16:12;101366.28;;;5.09;66.84
68807;BME280;55800;54.272;18.558;2023-04-07T02:18:43;101361.88;;;5.11;66.69
68807;BME280;55800;54.272;18.558;2023-04-07T02:21:15;101368.94;;;5.09;67.80
68807;BME280;55800;54.272;18.558;2023-04-07T02:23:46;101379.56;;;5.09;65.80
68807;BME280;55800;54.272;18.558;2023-04-07T02:26:15;101368.03;;;5.11;67.41
68807;BME280;55800;54.272;18.558;2023-04-07T02:28:45;101359.19;;;5.12;65.51
68807;BME280;55800;54.272;18.558;2023-04-07T02:31:24;101354.78;;;5.13;66.35
68807;BME280;55800;54.272;18.558;2023-04-07T02:33:54;101358.31;;;5.12;66.78
68807;BME280;55800;54.272;18.558;2023-04-07T02:36:23;101360.94;;;5.13;66.00
68807;BME280;55800;54.272;18.558;2023-04-07T02:38:53;101358.31;;;5.12;67.38
68807;BME280;55800;54.272;18.558;2023-04-07T02:41:22;101357.44;;;5.13;67.34
68807;BME280;55800;54.272;18.558;2023-04-07T02:43:52;101354.75;;;5.14;66.21
68807;BME280;55800;54.272;18.558;2023-04-07T02:46:23;101352.97;;;5.13;66.63
68807;BME280;55800;54.272;18.558;2023-04-07T02:48:53;101347.69;;;5.13;67.84
68807;BME280;55800;54.272;18.558;2023-04-07T02:51:22;101344.16;;;5.11;67.82
68807;BME280;55800;54.272;18.558;2023-04-07T02:53:51;101352.97;;;5.13;69.05
68807;BME280;55800;54.272;18.558;2023-04-07T02:56:21;101353.00;;;5.15;68.32
68807;BME280;55800;54.272;18.558;2023-04-07T02:58:50;101353.00;;;5.15;68.20
68807;BME280;55800;54.272;18.558;2023-04-07T03:01:20;101353.81;;;5.23;66.53
68807;BME280;55800;54.272;18.558;2023-04-07T03:03:51;101349.38;;;5.22;67.76
68807;BME280;55800;54.272;18.558;2023-04-07T03:06:25;101345.88;;;5.20;68.41
68807;BME280;55800;54.272;18.558;2023-04-07T03:09:06;101349.41;;;5.20;66.71
68807;BME280;55800;54.272;18.558;2023-04-07T03:11:35;101347.66;;;5.18;66.70
68807;BME280;55800;54.272;18.558;2023-04-07T03:14:05;101350.31;;;5.16;65.94
68807;BME280;55800;54.272;18.558;2023-04-07T03:16:41;101346.78;;;5.16;66.00
68807;BME280;55800;54.272;18.558;2023-04-07T03:19:14;101352.94;;;5.18;65.90
68807;BME280;55800;54.272;18.558;2023-04-07T03:21:47;101345.91;;;5.17;66.64
68807;BME280;55800;54.272;18.558;2023-04-07T03:24:16;101349.41;;;5.19;65.60
68807;BME280;55800;54.272;18.558;2023-04-07T03:26:46;101344.97;;;5.21;65.69
68807;BME280;55800;54.272;18.558;2023-04-07T03:29:25;101352.94;;;5.18;65.43
68807;BME280;55800;54.272;18.558;2023-04-07T03:31:55;101355.63;;;5.16;65.63
68807;BME280;55800;54.272;18.558;2023-04-07T03:34:26;101361.75;;;5.26;65.91
68807;BME280;55800;54.272;18.558;2023-04-07T03:36:58;101356.47;;;5.20;68.19
68807;BME280;55800;54.272;18.558;2023-04-07T03:39:30;101357.38;;;5.19;68.23
68807;BME280;55800;54.272;18.558;2023-04-07T03:42:00;101345.88;;;5.20;67.69
68807;BME280;55800;54.272;18.558;2023-04-07T03:44:32;101352.97;;;5.19;66.23
68807;BME280;55800;54.272;18.558;2023-04-07T03:47:02;101346.75;;;5.20;65.43
68807;BME280;55800;54.272;18.558;2023-04-07T03:49:33;101348.50;;;5.20;67.47
68807;BME280;55800;54.272;18.558;2023-04-07T03:52:06;101350.25;;;5.22;67.47
68807;BME280;55800;54.272;18.558;2023-04-07T03:54:36;101344.97;;;5.22;67.74
68807;BME280;55800;54.272;18.558;2023-04-07T03:57:05;101352.00;;;5.28;66.25
68807;BME280;55800;54.272;18.558;2023-04-07T03:59:41;101357.28;;;5.26;66.79
68807;BME280;55800;54.272;18.558;2023-04-07T04:02:10;101359.97;;;5.28;66.47
68807;BME280;55800;54.272;18.558;2023-04-07T04:04:41;101356.44;;;5.24;67.78
68807;BME280;55800;54.272;18.558;2023-04-07T04:07:12;101359.03;;;5.32;67.85
68807;BME280;55800;54.272;18.558;2023-04-07T04:09:45;101353.72;;;5.32;67.15
68807;BME280;55800;54.272;18.558;2023-04-07T04:12:14;101359.06;;;5.27;66.26
68807;BME280;55800;54.272;18.558;2023-04-07T04:15:00;101353.72;;;5.32;68.80
68807;BME280;55800;54.272;18.558;2023-04-07T04:17:31;101347.53;;;5.31;66.74
68807;BME280;55800;54.272;18.558;2023-04-07T04:20:05;101351.09;;;5.29;66.67
68807;BME280;55800;54.272;18.558;2023-04-07T04:22:43;101343.97;;;5.32;67.05
68807;BME280;55800;54.272;18.558;2023-04-07T04:25:12;101359.00;;;5.35;67.48
68807;BME280;55800;54.272;18.558;2023-04-07T04:27:46;101359.03;;;5.32;68.95
68807;BME280;55800;54.272;18.558;2023-04-07T04:30:25;101351.94;;;5.32;67.80
68807;BME280;55800;54.272;18.558;2023-04-07T04:32:59;101352.88;;;5.30;67.67
68807;BME280;55800;54.272;18.558;2023-04-07T04:36:05;101355.47;;;5.33;67.53
68807;BME280;55800;54.272;18.558;2023-04-07T04:38:34;101347.53;;;5.33;66.46
68807;BME280;55800;54.272;18.558;2023-04-07T04:41:12;101341.31;;;5.32;66.68
68807;BME280;55800;54.272;18.558;2023-04-07T04:43:42;101340.41;;;5.38;67.78
68807;BME280;55800;54.272;18.558;2023-04-07T04:46:16;101335.03;;;5.44;68.42
68807;BME280;55800;54.272;18.558;2023-04-07T04:48:48;101332.44;;;5.39;66.53
68807;BME280;55800;54.272;18.558;2023-04-07T04:51:21;101324.50;;;5.38;68.57
68807;BME280;55800;54.272;18.558;2023-04-07T04:53:56;101326.25;;;5.39;68.92
68807;BME280;55800;54.272;18.558;2023-04-07T04:56:27;101329.75;;;5.41;68.13
68807;BME280;55800;54.272;18.558;2023-04-07T04:58:56;101326.16;;;5.48;68.68
68807;BME280;55800;54.272;18.558;2023-04-07T05:01:37;101329.75;;;5.44;68.68
68807;BME280;55800;54.272;18.558;2023-04-07T05:04:11;101335.06;;;5.41;68.17
68807;BME280;55800;54.272;18.558;2023-04-07T05:06:49;101339.53;;;5.37;69.23
68807;BME280;55800;54.272;18.558;2023-04-07T05:09:22;101339.50;;;5.39;69.62
68807;BME280;55800;54.272;18.558;2023-04-07T05:11:51;101333.31;;;5.40;69.37
68807;BME280;55800;54.272;18.558;2023-04-07T05:14:21;101335.94;;;5.43;69.08
68807;BME280;55800;54.272;18.558;2023-04-07T05:17:02;101332.41;;;5.41;68.08
68807;BME280;55800;54.272;18.558;2023-04-07T05:19:32;101323.59;;;5.39;70.02
68807;BME280;55800;54.272;18.558;2023-04-07T05:22:10;101328.03;;;5.40;68.28
68807;BME280;55800;54.272;18.558;2023-04-07T05:24:45;101335.09;;;5.39;68.13
68807;BME280;55800;54.272;18.558;2023-04-07T05:27:14;101341.28;;;5.37;69.13
68807;BME280;55800;54.272;18.558;2023-04-07T05:29:47;101340.41;;;5.38;68.03
68807;BME280;55800;54.272;18.558;2023-04-07T05:32:27;101349.22;;;5.40;68.38
68807;BME280;55800;54.272;18.558;2023-04-07T05:34:58;101352.69;;;5.45;69.10
68807;BME280;55800;54.272;18.558;2023-04-07T05:37:36;101358.03;;;5.42;71.32
68807;BME280;55800;54.272;18.558;2023-04-07T05:40:07;101358.06;;;5.39;70.13
68807;BME280;55800;54.272;18.558;2023-04-07T05:42:38;101358.84;;;5.50;69.71
68807;BME280;55800;54.272;18.558;2023-04-07T05:45:08;101363.28;;;5.51;71.08
68807;BME280;55800;54.272;18.558;2023-04-07T05:47:42;101367.63;;;5.57;69.57
68807;BME280;55800;54.272;18.558;2023-04-07T05:50:11;101365.88;;;5.56;69.10
68807;BME280;55800;54.272;18.558;2023-04-07T05:52:46;101360.59;;;5.56;68.58
68807;BME280;55800;54.272;18.558;2023-04-07T05:55:21;101359.59;;;5.64;69.50
68807;BME280;55800;54.272;18.558;2023-04-07T05:57:52;101354.25;;;5.67;70.47
68807;BME280;55800;54.272;18.558;2023-04-07T06:00:24;101355.16;;;5.68;69.57
68807;BME280;55800;54.272;18.558;2023-04-07T06:03:05;101351.66;;;5.63;70.81
68807;BME280;55800;54.272;18.558;2023-04-07T06:05:46;101364.88;;;5.67;68.88
68807;BME280;55800;54.272;18.558;2023-04-07T06:08:20;101357.88;;;5.62;69.39
68807;BME280;55800;54.272;18.558;2023-04-07T06:10:49;101366.66;;;5.65;70.03
68807;BME280;55800;54.272;18.558;2023-04-07T06:13:19;101369.28;;;5.70;71.73
68807;BME280;55800;54.272;18.558;2023-04-07T06:15:48;101367.47;;;5.73;69.02
68807;BME280;55800;54.272;18.558;2023-04-07T06:18:18;101371.00;;;5.74;69.73
68807;BME280;55800;54.272;18.558;2023-04-07T06:20:47;101374.50;;;5.77;69.22
68807;BME280;55800;54.272;18.558;2023-04-07T06:23:21;101378.88;;;5.81;70.35
68807;BME280;55800;54.272;18.558;2023-04-07T06:25:50;101388.63;;;5.79;70.37
68807;BME280;55800;54.272;18.558;2023-04-07T06:28:20;101379.72;;;5.88;71.21
68807;BME280;55800;54.272;18.558;2023-04-07T06:30:49;101377.09;;;5.86;70.94
68807;BME280;55800;54.272;18.558;2023-04-07T06:33:20;101378.81;;;5.90;70.77
68807;BME280;55800;54.272;18.558;2023-04-07T06:35:52;101382.31;;;5.95;70.39
68807;BME280;55800;54.272;18.558;2023-04-07T06:38:23;101378.72;;;5.99;71.09
68807;BME280;55800;54.272;18.558;2023-04-07T06:40:52;101388.44;;;6.02;71.62
68807;BME280;55800;54.272;18.558;2023-04-07T06:43:22;101378.63;;;6.08;70.16
68807;BME280;55800;54.272;18.558;2023-04-07T06:45:57;101368.81;;;6.13;72.14
68807;BME280;55800;54.272;18.558;2023-04-07T06:48:26;101385.66;;;6.12;71.19
68807;BME280;55800;54.272;18.558;2023-04-07T06:50:56;101380.25;;;6.18;70.71
68807;BME280;55800;54.272;18.558;2023-04-07T06:53:27;101379.34;;;6.19;70.47
68807;BME280;55800;54.272;18.558;2023-04-07T06:56:06;101377.59;;;6.20;69.20
68807;BME280;55800;54.272;18.558;2023-04-07T06:58:37;101381.13;;;6.20;70.83
68807;BME280;55800;54.272;18.558;2023-04-07T07:01:06;101376.69;;;6.19;71.69
68807;BME280;55800;54.272;18.558;2023-04-07T07:03:35;101381.00;;;6.28;69.44
68807;BME280;55800;54.272;18.558;2023-04-07T07:06:05;101388.13;;;6.26;70.07
68807;BME280;55800;54.272;18.558;2023-04-07T07:08:35;101381.97;;;6.22;71.16
68807;BME280;55800;54.272;18.558;2023-04-07T07:11:05;101375.78;;;6.22;70.54
68807;BME280;55800;54.272;18.558;2023-04-07T07:13:34;101379.34;;;6.21;70.25
68807;BME280;55800;54.272;18.558;2023-04-07T07:16:04;101381.06;;;6.23;70.56
68807;BME280;55800;54.272;18.558;2023-04-07T07:18:35;101385.50;;;6.24;69.92
68807;BME280;55800;54.272;18.558;2023-04-07T07:21:04;101390.78;;;6.26;70.22
68807;BME280;55800;54.272;18.558;2023-04-07T07:23:38;101384.59;;;6.27;70.16
68807;BME280;55800;54.272;18.558;2023-04-07T07:26:07;101388.13;;;6.27;70.17
68807;BME280;55800;54.272;18.558;2023-04-07T07:28:37;101381.97;;;6.25;69.22
68807;BME280;55800;54.272;18.558;2023-04-07T07:31:10;101387.19;;;6.32;69.42
68807;BME280;55800;54.272;18.558;2023-04-07T07:33:42;101376.56;;;6.32;68.83
68807;BME280;55800;54.272;18.558;2023-04-07T07:36:13;101378.28;;;6.36;70.23
68807;BME280;55800;54.272;18.558;2023-04-07T07:38:44;101384.38;;;6.44;69.24
68807;BME280;55800;54.272;18.558;2023-04-07T07:41:13;101372.88;;;6.42;70.41
68807;BME280;55800;54.272;18.558;2023-04-07T07:43:43;101379.03;;;6.45;70.44
68807;BME280;55800;54.272;18.558;2023-04-07T07:46:12;101370.16;;;6.48;70.67
68807;BME280;55800;54.272;18.558;2023-04-07T07:48:42;101380.78;;;6.48;70.16
68807;BME280;55800;54.272;18.558;2023-04-07T07:51:11;101386.94;;;6.50;70.62
68807;BME280;55800;54.272;18.558;2023-04-07T07:53:40;101394.03;;;6.51;69.99
68807;BME280;55800;54.272;18.558;2023-04-07T07:56:11;101389.47;;;6.60;70.02
68807;BME280;55800;54.272;18.558;2023-04-07T07:58:41;101390.28;;;6.64;68.85
68807;BME280;55800;54.272;18.558;2023-04-07T08:01:10;101388.44;;;6.69;69.07
68807;BME280;55800;54.272;18.558;2023-04-07T08:03:39;101383.13;;;6.72;70.35
68807;BME280;55800;54.272;18.558;2023-04-07T08:06:09;101382.19;;;6.73;70.75
68807;BME280;55800;54.272;18.558;2023-04-07T08:08:38;101382.16;;;6.76;71.03
68807;BME280;55800;54.272;18.558;2023-04-07T08:11:08;101389.16;;;6.81;70.28
68807;BME280;55800;54.272;18.558;2023-04-07T08:13:38;101392.56;;;6.89;69.64
68807;BME280;55800;54.272;18.558;2023-04-07T08:16:12;101399.59;;;6.95;69.92
68807;BME280;55800;54.272;18.558;2023-04-07T08:18:41;101392.50;;;6.94;70.98
68807;BME280;55800;54.272;18.558;2023-04-07T08:21:11;101386.19;;;7.04;70.25
68807;BME280;55800;54.272;18.558;2023-04-07T08:23:41;101392.31;;;7.07;69.99
68807;BME280;55800;54.272;18.558;2023-04-07T08:26:10;101391.22;;;7.19;69.65
68807;BME280;55800;54.272;18.558;2023-04-07T08:28:41;101390.31;;;7.22;70.19
68807;BME280;55800;54.272;18.558;2023-04-07T08:31:10;101391.97;;;7.29;69.81
68807;BME280;55800;54.272;18.558;2023-04-07T08:33:40;101392.75;;;7.35;70.17
68807;BME280;55800;54.272;18.558;2023-04-07T08:36:09;101388.25;;;7.39;70.13
68807;BME280;55800;54.272;18.558;2023-04-07T08:38:38;101394.34;;;7.45;69.52
68807;BME280;55800;54.272;18.558;2023-04-07T08:41:10;101397.88;;;7.47;70.06
68807;BME280;55800;54.272;18.558;2023-04-07T08:43:42;101392.47;;;7.52;68.92
68807;BME280;55800;54.272;18.558;2023-04-07T08:46:14;101403.09;;;7.53;68.75
68807;BME280;55800;54.272;18.558;2023-04-07T08:48:44;101399.47;;;7.57;69.41
68807;BME280;55800;54.272;18.558;2023-04-07T08:51:22;101391.47;;;7.59;69.26
68807;BME280;55800;54.272;18.558;2023-04-07T08:54:02;101393.19;;;7.63;69.11
68807;BME280;55800;54.272;18.558;2023-04-07T08:56:33;101387.84;;;7.63;69.54
68807;BME280;55800;54.272;18.558;2023-04-07T08:59:04;101389.66;;;7.61;70.24
68807;BME280;55800;54.272;18.558;2023-04-07T09:01:35;101396.75;;;7.60;68.83
68807;BME280;55800;54.272;18.558;2023-04-07T09:04:05;101389.59;;;7.65;68.46
68807;BME280;55800;54.272;18.558;2023-04-07T09:06:35;101394.84;;;7.68;68.35
68807;BME280;55800;54.272;18.558;2023-04-07T09:09:05;101386.81;;;7.71;68.05
68807;BME280;55800;54.272;18.558;2023-04-07T09:11:36;101382.38;;;7.70;68.75
68807;BME280;55800;54.272;18.558;2023-04-07T09:14:09;101385.88;;;7.72;68.97
68807;BME280;55800;54.272;18.558;2023-04-07T09:16:38;101379.56;;;7.79;68.18
68807;BME280;55800;54.272;18.558;2023-04-07T09:19:08;101384.94;;;7.76;68.87
68807;BME280;55800;54.272;18.558;2023-04-07T09:21:47;101384.00;;;7.79;68.63
68807;BME280;55800;54.272;18.558;2023-04-07T09:24:22;101389.28;;;7.80;68.45
68807;BME280;55800;54.272;18.558;2023-04-07T09:27:07;101388.34;;;7.84;67.99
68807;BME280;55800;54.272;18.558;2023-04-07T09:29:40;101393.59;;;7.87;68.24
68807;BME280;55800;54.272;18.558;2023-04-07T09:32:11;101393.56;;;7.91;69.04
68807;BME280;55800;54.272;18.558;2023-04-07T09:34:42;101371.13;;;8.02;68.39
68807;BME280;55800;54.272;18.558;2023-04-07T09:37:20;101372.84;;;8.05;67.81
68807;BME280;55800;54.272;18.558;2023-04-07T09:39:51;101367.50;;;8.06;67.82
68807;BME280;55800;54.272;18.558;2023-04-07T09:42:20;101371.88;;;8.09;68.55
68807;BME280;55800;54.272;18.558;2023-04-07T09:44:51;101375.31;;;8.15;69.03
68807;BME280;55800;54.272;18.558;2023-04-07T09:47:25;101376.91;;;8.24;68.18
68807;BME280;55800;54.272;18.558;2023-04-07T09:49:57;101375.00;;;8.32;68.57
68807;BME280;55800;54.272;18.558;2023-04-07T09:52:50;101376.59;;;8.40;69.02
68807;BME280;55800;54.272;18.558;2023-04-07T09:55:22;101373.69;;;8.51;68.87
68807;BME280;55800;54.272;18.558;2023-04-07T09:57:52;101378.88;;;8.58;68.97
68807;BME280;55800;54.272;18.558;2023-04-07T10:00:25;101364.50;;;8.65;68.34
68807;BME280;55800;54.272;18.558;2023-04-07T10:02:55;101379.41;;;8.74;68.74
68807;BME280;55800;54.272;18.558;2023-04-07T10:05:25;101371.25;;;8.82;68.37
68807;BME280;55800;54.272;18.558;2023-04-07T10:07:55;101375.50;;;8.90;68.29
68807;BME280;55800;54.272;18.558;2023-04-07T10:10:25;101369.19;;;8.94;68.27
68807;BME280;55800;54.272;18.558;2023-04-07T10:12:56;101365.38;;;9.04;68.01
68807;BME280;55800;54.272;18.558;2023-04-07T10:15:28;101370.66;;;9.07;67.89
68807;BME280;55800;54.272;18.558;2023-04-07T10:17:59;101358.94;;;9.13;68.12
68807;BME280;55800;54.272;18.558;2023-04-07T10:20:31;101376.53;;;9.21;68.09
68807;BME280;55800;54.272;18.558;2023-04-07T10:23:02;101371.97;;;9.26;68.10
68807;BME280;55800;54.272;18.558;2023-04-07T10:25:33;101384.19;;;9.35;67.82
68807;BME280;55800;54.272;18.558;2023-04-07T10:28:05;101378.59;;;9.44;67.41
68807;BME280;55800;54.272;18.558;2023-04-07T10:30:38;101375.75;;;9.52;67.67
68807;BME280;55800;54.272;18.558;2023-04-07T10:33:08;101372.94;;;9.58;67.45
68807;BME280;55800;54.272;18.558;2023-04-07T10:36:02;101370.97;;;9.64;67.12
68807;BME280;55800;54.272;18.558;2023-04-07T10:38:32;101364.53;;;9.73;66.99
68807;BME280;55800;54.272;18.558;2023-04-07T10:41:12;101369.63;;;9.82;67.27
68807;BME280;55800;54.272;18.558;2023-04-07T10:43:59;101350.06;;;9.81;66.78
68807;BME280;55800;54.272;18.558;2023-04-07T10:49:39;101346.84;;;10.01;66.76
68807;BME280;55800;54.272;18.558;2023-04-07T10:52:29;101345.69;;;10.09;66.65
68807;BME280;55800;54.272;18.558;2023-04-07T10:55:32;101345.63;;;10.12;66.63
68807;BME280;55800;54.272;18.558;2023-04-07T10:58:16;101351.38;;;10.30;66.60
68807;BME280;55800;54.272;18.558;2023-04-07T11:01:17;101349.22;;;10.42;66.51
68807;BME280;55800;54.272;18.558;2023-04-07T11:03:59;101351.50;;;10.54;66.43
68807;BME280;55800;54.272;18.558;2023-04-07T11:06:30;101349.31;;;10.68;66.25
68807;BME280;55800;54.272;18.558;2023-04-07T11:09:00;101351.53;;;10.83;65.90
68807;BME280;55800;54.272;18.558;2023-04-07T11:11:37;101357.78;;;10.82;65.27
68807;BME280;55800;54.272;18.558;2023-04-07T11:14:07;101356.81;;;10.85;65.74
68807;BME280;55800;54.272;18.558;2023-04-07T11:16:38;101349.28;;;10.97;65.75
68807;BME280;55800;54.272;18.558;2023-04-07T11:19:08;101353.31;;;11.11;65.69
68807;BME280;55800;54.272;18.558;2023-04-07T11:21:40;101357.34;;;11.24;65.78
68807;BME280;55800;54.272;18.558;2023-04-07T11:24:09;101354.47;;;11.30;65.66
68807;BME280;55800;54.272;18.558;2023-04-07T11:26:40;101350.56;;;11.40;65.59
68807;BME280;55800;54.272;18.558;2023-04-07T11:29:11;101351.06;;;11.51;65.49
68807;BME280;55800;54.272;18.558;2023-04-07T11:31:40;101349.97;;;11.56;65.26
68807;BME280;55800;54.272;18.558;2023-04-07T11:34:15;101351.47;;;11.65;65.25
68807;BME280;55800;54.272;18.558;2023-04-07T11:36:46;101348.59;;;11.71;64.94
68807;BME280;55800;54.272;18.558;2023-04-07T11:39:20;101337.50;;;11.82;64.88
68807;BME280;55800;54.272;18.558;2023-04-07T11:41:50;101340.16;;;11.83;64.56
68807;BME280;55800;54.272;18.558;2023-04-07T11:44:19;101339.94;;;11.89;64.82
68807;BME280;55800;54.272;18.558;2023-04-07T11:46:55;101340.69;;;11.93;64.32
68807;BME280;55800;54.272;18.558;2023-04-07T11:49:26;101332.47;;;11.97;63.70
68807;BME280;55800;54.272;18.558;2023-04-07T11:52:01;101322.25;;;12.08;64.15
68807;BME280;55800;54.272;18.558;2023-04-07T11:54:40;101321.06;;;12.15;64.33
68807;BME280;55800;54.272;18.558;2023-04-07T11:57:09;101322.59;;;12.22;63.90
68807;BME280;55800;54.272;18.558;2023-04-07T11:59:40;101336.47;;;12.33;64.07
68807;BME280;55800;54.272;18.558;2023-04-07T12:02:10;101325.44;;;12.41;63.73
68807;BME280;55800;54.272;18.558;2023-04-07T12:04:55;101329.56;;;12.51;63.61
68807;BME280;55800;54.272;18.558;2023-04-07T12:07:26;101324.19;;;12.51;62.40
68807;BME280;55800;54.272;18.558;2023-04-07T12:09:56;101325.94;;;12.52;63.36
68807;BME280;55800;54.272;18.558;2023-04-07T12:12:26;101330.06;;;12.61;62.49
68807;BME280;55800;54.272;18.558;2023-04-07T12:14:58;101324.63;;;12.62;62.01
68807;BME280;55800;54.272;18.558;2023-04-07T12:17:31;101327.69;;;12.75;62.29
68807;BME280;55800;54.272;18.558;2023-04-07T12:20:00;101329.03;;;12.86;63.00
68807;BME280;55800;54.272;18.558;2023-04-07T12:22:32;101330.41;;;12.96;63.05
68807;BME280;55800;54.272;18.558;2023-04-07T12:25:02;101330.00;;;13.07;62.78
68807;BME280;55800;54.272;18.558;2023-04-07T12:27:31;101333.38;;;13.12;61.75
68807;BME280;55800;54.272;18.558;2023-04-07T12:30:11;101341.94;;;13.21;62.08
68807;BME280;55800;54.272;18.558;2023-04-07T12:32:42;101341.75;;;13.26;62.21
68807;BME280;55800;54.272;18.558;2023-04-07T12:35:11;101338.25;;;13.24;60.72
68807;BME280;55800;54.272;18.558;2023-04-07T12:37:42;101333.03;;;13.21;60.80
68807;BME280;55800;54.272;18.558;2023-04-07T12:40:12;101338.16;;;13.25;61.04
68807;BME280;55800;54.272;18.558;2023-04-07T12:42:43;101340.00;;;13.25;62.18
68807;BME280;55800;54.272;18.558;2023-04-07T12:45:12;101342.63;;;13.26;61.55
68807;BME280;55800;54.272;18.558;2023-04-07T12:47:41;101348.00;;;13.26;60.21
68807;BME280;55800;54.272;18.558;2023-04-07T12:50:11;101342.00;;;13.20;60.58
68807;BME280;55800;54.272;18.558;2023-04-07T12:52:41;101343.00;;;13.17;60.77
68807;BME280;55800;54.272;18.558;2023-04-07T12:55:12;101347.38;;;13.20;61.20
68807;BME280;55800;54.272;18.558;2023-04-07T12:57:41;101346.66;;;13.15;60.43
68807;BME280;55800;54.272;18.558;2023-04-07T13:00:11;101348.75;;;13.08;59.79
68807;BME280;55800;54.272;18.558;2023-04-07T13:02:40;101340.97;;;13.01;59.21
68807;BME280;55800;54.272;18.558;2023-04-07T13:05:10;101347.09;;;13.04;60.62
68807;BME280;55800;54.272;18.558;2023-04-07T13:07:39;101344.25;;;13.09;60.53
68807;BME280;55800;54.272;18.558;2023-04-07T13:10:10;101350.38;;;13.12;60.93
68807;BME280;55800;54.272;18.558;2023-04-07T13:12:40;101347.63;;;13.14;61.31
68807;BME280;55800;54.272;18.558;2023-04-07T13:15:09;101358.47;;;13.11;59.35
68807;BME280;55800;54.272;18.558;2023-04-07T13:17:38;101365.28;;;13.19;60.67